createdAt,value
2018-12-24T00:02:18.129Z,79.38
2018-12-24T00:04:46.427Z,79.23
2018-12-24T00:07:14.735Z,79.19
2018-12-24T00:09:43.064Z,78.89
2018-12-24T00:12:11.343Z,79.09
2018-12-24T00:14:39.631Z,78.73
2018-12-24T00:17:07.927Z,78.79
2018-12-24T00:19:36.215Z,79.01
2018-12-24T00:22:04.517Z,78.99
2018-12-24T00:24:32.826Z,78.86
2018-12-24T00:27:01.125Z,79.05
2018-12-24T00:29:29.414Z,79.00
2018-12-24T00:31:57.734Z,78.86
2018-12-24T00:34:26.017Z,79.15
2018-12-24T00:36:54.309Z,79.09
2018-12-24T00:39:22.619Z,79.05
2018-12-24T00:41:50.916Z,79.04
2018-12-24T00:44:19.201Z,78.77
2018-12-24T00:46:47.506Z,78.92
2018-12-24T00:49:15.797Z,79.01
2018-12-24T00:51:44.133Z,78.73
2018-12-24T00:54:12.426Z,79.00
2018-12-24T00:56:40.706Z,78.78
2018-12-24T00:59:09.026Z,78.35
2018-12-24T01:01:37.313Z,78.53
2018-12-24T01:04:05.615Z,78.74
2018-12-24T01:06:33.924Z,78.51
2018-12-24T01:09:02.230Z,78.65
2018-12-24T01:11:30.509Z,78.75
2018-12-24T01:13:58.805Z,78.84
2018-12-24T01:16:27.094Z,78.89
2018-12-24T01:18:55.395Z,78.95
2018-12-24T01:21:23.685Z,78.51
2018-12-24T01:23:51.986Z,78.52
2018-12-24T01:26:20.267Z,78.41
2018-12-24T01:28:48.568Z,78.42
2018-12-24T01:31:16.863Z,78.27
2018-12-24T01:33:45.159Z,78.46
2018-12-24T01:36:13.447Z,78.45
2018-12-24T01:38:41.747Z,78.10
2018-12-24T01:41:10.029Z,77.80
2018-12-24T01:43:38.331Z,78.05
2018-12-24T01:46:06.616Z,78.04
2018-12-24T01:48:34.914Z,77.77
2018-12-24T01:51:03.203Z,77.42
2018-12-24T01:53:31.500Z,77.74
2018-12-24T01:55:59.785Z,77.26
2018-12-24T01:58:28.101Z,77.22
2018-12-24T02:00:56.389Z,77.31
2018-12-24T02:03:24.677Z,77.35
2018-12-24T02:05:52.977Z,77.17
2018-12-24T02:08:21.266Z,76.86
2018-12-24T02:10:49.560Z,76.54
2018-12-24T02:13:17.848Z,76.85
2018-12-24T02:15:46.152Z,77.24
2018-12-24T02:18:14.459Z,77.31
2018-12-24T02:20:42.759Z,77.39
2018-12-24T02:23:11.041Z,77.08
2018-12-24T02:25:39.342Z,77.20
2018-12-24T02:28:07.630Z,77.52
2018-12-24T02:30:35.934Z,77.22
2018-12-24T02:33:04.247Z,77.37
2018-12-24T02:35:32.565Z,77.24
2018-12-24T02:38:00.859Z,77.31
2018-12-24T02:40:29.185Z,77.20
2018-12-24T02:42:57.496Z,76.61
2018-12-24T02:45:25.871Z,76.72
2018-12-24T02:47:54.140Z,75.93
2018-12-24T02:50:22.465Z,76.31
2018-12-24T02:52:50.752Z,76.37
2018-12-24T02:55:19.045Z,76.43
2018-12-24T02:57:47.335Z,76.50
2018-12-24T03:00:15.634Z,76.02
2018-12-24T03:02:43.968Z,76.19
2018-12-24T03:05:12.213Z,75.97
2018-12-24T03:07:40.497Z,75.80
2018-12-24T03:10:08.818Z,75.77
2018-12-24T03:12:37.129Z,75.93
2018-12-24T03:15:45.565Z,75.94
2018-12-24T03:18:13.869Z,75.75
2018-12-24T03:20:42.164Z,75.78
2018-12-24T03:23:10.437Z,75.76
2018-12-24T03:25:38.724Z,76.05
2018-12-24T03:28:07.009Z,76.35
2018-12-24T03:30:35.317Z,76.37
2018-12-24T03:33:03.598Z,76.48
2018-12-24T03:35:31.925Z,76.80
2018-12-24T03:38:00.210Z,76.49
2018-12-24T03:40:28.545Z,76.68
2018-12-24T03:42:56.817Z,76.82
2018-12-24T03:45:25.141Z,76.78
2018-12-24T03:47:53.449Z,76.62
2018-12-24T03:50:21.771Z,76.54
2018-12-24T03:52:50.146Z,75.97
2018-12-24T03:55:18.429Z,76.27
2018-12-24T03:57:46.728Z,75.98
2018-12-24T04:00:15.010Z,76.10
2018-12-24T04:02:43.311Z,76.09
2018-12-24T04:05:11.598Z,75.95
2018-12-24T04:07:39.893Z,75.50
2018-12-24T04:10:08.202Z,75.53
2018-12-24T04:12:36.522Z,75.19
2018-12-24T04:15:04.812Z,73.66
2018-12-24T04:17:33.113Z,74.08
2018-12-24T04:20:01.393Z,74.44
2018-12-24T04:22:29.702Z,74.15
2018-12-24T04:24:57.999Z,74.16
2018-12-24T04:27:26.297Z,74.17
2018-12-24T04:29:54.581Z,73.68
2018-12-24T04:32:22.878Z,73.61
2018-12-24T04:34:51.163Z,74.07
2018-12-24T04:37:19.464Z,74.10
2018-12-24T04:39:47.757Z,74.02
2018-12-24T04:42:16.053Z,73.84
2018-12-24T04:44:44.339Z,73.74
2018-12-24T04:47:12.637Z,73.28
2018-12-24T04:49:40.933Z,73.46
2018-12-24T04:52:09.246Z,73.43
2018-12-24T04:54:37.535Z,73.55
2018-12-24T04:57:05.834Z,73.77
2018-12-24T04:59:34.125Z,73.80
2018-12-24T05:02:02.422Z,73.20
2018-12-24T05:04:30.714Z,73.62
2018-12-24T05:06:59.040Z,73.49
2018-12-24T05:09:27.330Z,73.31
2018-12-24T05:11:55.631Z,73.20
2018-12-24T05:14:23.921Z,73.10
2018-12-24T05:16:52.211Z,73.21
2018-12-24T05:19:20.529Z,73.35
2018-12-24T05:21:48.838Z,73.27
2018-12-24T05:24:17.143Z,73.06
2018-12-24T05:26:45.450Z,73.18
2018-12-24T05:29:13.745Z,73.18
2018-12-24T05:31:42.063Z,72.95
2018-12-24T05:34:10.359Z,72.74
2018-12-24T05:36:38.643Z,72.80
2018-12-24T05:39:06.944Z,72.95
2018-12-24T05:41:35.228Z,73.02
2018-12-24T05:44:03.529Z,72.86
2018-12-24T05:46:31.822Z,72.59
2018-12-24T05:49:00.199Z,72.45
2018-12-24T05:51:28.488Z,72.51
2018-12-24T05:53:56.790Z,72.50
2018-12-24T05:56:25.078Z,72.41
2018-12-24T05:58:53.382Z,72.50
2018-12-24T06:01:21.696Z,72.50
2018-12-24T06:03:49.998Z,72.43
2018-12-24T06:06:18.286Z,72.31
2018-12-24T06:08:46.570Z,72.27
2018-12-24T06:11:14.887Z,72.16
2018-12-24T06:13:43.198Z,72.14
2018-12-24T06:16:11.532Z,72.04
2018-12-24T06:18:39.836Z,71.99
2018-12-24T06:21:08.132Z,71.82
2018-12-24T06:23:36.446Z,71.86
2018-12-24T06:26:04.760Z,71.91
2018-12-24T06:28:33.052Z,71.77
2018-12-24T06:31:01.433Z,71.72
2018-12-24T06:33:29.743Z,71.70
2018-12-24T06:35:58.038Z,71.59
2018-12-24T06:38:26.322Z,71.43
2018-12-24T06:40:54.624Z,71.58
2018-12-24T06:43:22.910Z,71.58
2018-12-24T06:45:51.215Z,71.70
2018-12-24T06:48:19.521Z,71.68
2018-12-24T06:50:47.841Z,71.67
2018-12-24T06:53:16.147Z,71.46
2018-12-24T06:55:44.451Z,71.47
2018-12-24T06:58:12.760Z,71.45
2018-12-24T07:00:41.085Z,71.44
2018-12-24T07:03:09.375Z,71.53
2018-12-24T07:05:37.678Z,71.57
2018-12-24T07:08:05.971Z,71.38
2018-12-24T07:10:34.296Z,71.40
2018-12-24T07:13:02.578Z,71.35
2018-12-24T07:15:30.903Z,71.34
2018-12-24T07:17:59.185Z,71.32
2018-12-24T07:20:27.472Z,71.39
2018-12-24T07:22:55.772Z,71.43
2018-12-24T07:25:24.082Z,71.46
2018-12-24T07:27:52.384Z,71.40
2018-12-24T07:30:20.696Z,71.38
2018-12-24T07:32:48.998Z,71.31
2018-12-24T07:35:17.283Z,71.44
2018-12-24T07:37:45.578Z,71.49
2018-12-24T07:40:13.861Z,71.58
2018-12-24T07:42:42.159Z,71.58
2018-12-24T07:45:10.445Z,71.54
2018-12-24T07:47:38.743Z,71.45
2018-12-24T07:50:07.055Z,71.47
2018-12-24T07:52:35.362Z,71.47
2018-12-24T07:55:03.650Z,71.47
2018-12-24T07:57:31.944Z,71.43
2018-12-24T08:00:00.232Z,71.35
2018-12-24T08:02:28.558Z,71.14
2018-12-24T08:04:56.857Z,71.18
2018-12-24T08:07:25.141Z,71.04
2018-12-24T08:09:53.439Z,71.01
2018-12-24T08:12:21.730Z,71.27
2018-12-24T08:14:50.018Z,71.28
2018-12-24T08:17:18.307Z,71.34
2018-12-24T08:19:46.626Z,71.44
2018-12-24T08:22:14.935Z,71.49
2018-12-24T08:24:43.256Z,71.19
2018-12-24T08:27:11.536Z,71.52
2018-12-24T08:29:39.841Z,71.66
2018-12-24T08:32:08.126Z,71.73
2018-12-24T08:34:36.425Z,71.75
2018-12-24T08:37:04.716Z,71.57
2018-12-24T08:39:33.037Z,71.56
2018-12-24T08:42:01.320Z,71.46
2018-12-24T08:44:29.622Z,71.31
2018-12-24T08:46:57.944Z,71.24
2018-12-24T08:49:26.247Z,71.10
2018-12-24T08:51:54.554Z,70.87
2018-12-24T08:54:22.852Z,70.93
2018-12-24T08:56:51.137Z,70.51
2018-12-24T08:59:19.433Z,70.45
2018-12-24T09:01:47.742Z,70.47
2018-12-24T09:04:16.046Z,70.50
2018-12-24T09:06:44.346Z,70.47
2018-12-24T09:09:12.634Z,70.30
2018-12-24T09:11:40.952Z,70.46
2018-12-24T09:14:09.240Z,70.34
2018-12-24T09:16:37.557Z,70.28
2018-12-24T09:19:05.868Z,70.08
2018-12-24T09:21:34.172Z,69.64
2018-12-24T09:24:02.458Z,69.94
2018-12-24T09:26:30.755Z,69.47
2018-12-24T09:28:59.134Z,69.32
2018-12-24T09:31:27.442Z,69.31
2018-12-24T09:33:55.741Z,68.50
2018-12-24T09:36:24.049Z,68.53
2018-12-24T09:38:52.331Z,67.89
2018-12-24T09:41:20.631Z,68.10
2018-12-24T09:43:48.914Z,67.95
2018-12-24T09:46:17.215Z,67.63
2018-12-24T09:48:45.522Z,67.22
2018-12-24T09:51:13.833Z,66.90
2018-12-24T09:53:42.143Z,66.65
2018-12-24T09:56:12.443Z,66.48
2018-12-24T09:58:40.463Z,66.27
2018-12-24T10:01:08.755Z,66.23
2018-12-24T10:06:32.110Z,65.55
2018-12-24T10:09:00.397Z,65.85
2018-12-24T10:11:28.734Z,65.40
2018-12-24T10:13:57.021Z,64.86
2018-12-24T10:16:25.307Z,64.90
2018-12-24T10:18:53.607Z,64.76
2018-12-24T10:21:21.896Z,64.58
2018-12-24T10:23:50.193Z,64.45
2018-12-24T10:26:18.482Z,63.88
2018-12-24T10:28:46.776Z,63.66
2018-12-24T10:31:15.073Z,62.90
2018-12-24T10:33:43.448Z,62.92
2018-12-24T10:36:11.740Z,62.80
2018-12-24T10:38:40.033Z,62.10
2018-12-24T10:41:08.318Z,62.42
2018-12-24T10:43:36.618Z,62.11
2018-12-24T10:46:04.910Z,62.42
2018-12-24T10:48:33.204Z,62.53
2018-12-24T10:51:01.493Z,62.33
2018-12-24T10:53:29.797Z,62.06
2018-12-24T10:55:58.105Z,61.55
2018-12-24T10:58:26.404Z,61.79
2018-12-24T11:00:54.713Z,61.54
2018-12-24T11:05:57.138Z,61.62
2018-12-24T11:08:25.448Z,61.59
2018-12-24T11:10:53.738Z,61.49
2018-12-24T11:13:22.026Z,61.28
2018-12-24T11:15:50.329Z,61.46
2018-12-24T11:18:18.620Z,61.82
2018-12-24T11:20:46.947Z,61.91
2018-12-24T11:23:15.232Z,62.03
2018-12-24T11:25:43.531Z,61.93
2018-12-24T11:28:11.821Z,61.29
2018-12-24T11:30:47.454Z,60.67
2018-12-24T11:33:15.742Z,60.65
2018-12-24T11:35:44.057Z,60.71
2018-12-24T11:38:12.350Z,61.26
2018-12-24T11:40:40.644Z,61.59
2018-12-24T11:43:08.933Z,62.22
2018-12-24T11:45:37.233Z,62.23
2018-12-24T11:48:05.516Z,62.40
2018-12-24T11:50:33.812Z,62.45
2018-12-24T11:53:02.102Z,62.42
2018-12-24T11:55:30.404Z,62.58
2018-12-24T11:57:58.693Z,63.00
2018-12-24T12:00:27.010Z,63.39
2018-12-24T12:02:55.293Z,63.88
2018-12-24T12:05:23.612Z,63.52
2018-12-24T12:07:51.897Z,63.47
2018-12-24T12:10:20.211Z,63.44
2018-12-24T12:12:48.522Z,63.81
2018-12-24T12:15:16.819Z,63.22
2018-12-24T12:17:45.110Z,63.39
2018-12-24T12:20:13.414Z,63.29
2018-12-24T12:22:41.738Z,63.20
2018-12-24T12:25:10.025Z,63.24
2018-12-24T12:27:38.316Z,63.17
2018-12-24T12:33:07.882Z,63.44
2018-12-24T12:35:36.177Z,63.62
2018-12-24T12:38:04.489Z,63.48
2018-12-24T12:40:32.780Z,63.48
2018-12-24T12:43:01.098Z,63.89
2018-12-24T12:45:29.403Z,63.21
2018-12-24T12:47:57.703Z,62.74
2018-12-24T12:50:25.988Z,62.86
2018-12-24T12:52:54.310Z,63.13
2018-12-24T12:55:22.604Z,63.26
2018-12-24T12:57:50.897Z,63.61
2018-12-24T13:00:19.187Z,63.90
2018-12-24T13:02:47.487Z,63.93
2018-12-24T13:05:15.769Z,63.79
2018-12-24T13:07:44.091Z,63.31
2018-12-24T13:10:12.400Z,62.83
2018-12-24T13:12:40.693Z,63.36
2018-12-24T13:15:08.992Z,63.34
2018-12-24T13:17:37.313Z,63.47
2018-12-24T13:20:05.689Z,63.17
2018-12-24T13:22:33.969Z,63.21
2018-12-24T13:25:02.298Z,63.08
2018-12-24T13:27:30.585Z,63.56
2018-12-24T13:29:58.883Z,63.46
2018-12-24T13:32:27.200Z,63.80
2018-12-24T13:34:55.499Z,64.43
2018-12-24T13:37:23.809Z,64.45
2018-12-24T13:39:52.200Z,64.53
2018-12-24T13:42:20.464Z,64.45
2018-12-24T13:44:48.757Z,65.12
2018-12-24T13:47:17.047Z,65.11
2018-12-24T13:49:45.354Z,65.47
2018-12-24T13:52:13.643Z,65.63
2018-12-24T13:54:41.946Z,66.51
2018-12-24T13:57:10.235Z,66.92
2018-12-24T13:59:38.559Z,66.26
2018-12-24T14:02:06.847Z,66.46
2018-12-24T14:04:35.146Z,66.56
2018-12-24T14:07:03.440Z,66.80
2018-12-24T14:09:31.761Z,66.89
2018-12-24T14:12:00.042Z,66.97
2018-12-24T14:14:28.362Z,67.24
2018-12-24T14:16:56.693Z,68.09
2018-12-24T14:19:24.981Z,68.31
2018-12-24T14:21:53.392Z,68.87
2018-12-24T14:24:21.640Z,68.69
2018-12-24T14:26:49.942Z,68.76
2018-12-24T14:29:18.234Z,68.81
2018-12-24T14:31:46.534Z,69.10
2018-12-24T14:37:28.362Z,69.79
2018-12-24T14:39:56.680Z,69.94
2018-12-24T14:42:24.967Z,70.51
2018-12-24T14:44:53.324Z,70.77
2018-12-24T14:47:21.639Z,70.72
2018-12-24T14:49:49.928Z,70.64
2018-12-24T14:52:18.231Z,70.81
2018-12-24T14:54:46.519Z,70.85
2018-12-24T14:57:14.838Z,71.06
2018-12-24T14:59:43.126Z,70.93
2018-12-24T15:02:11.428Z,71.17
2018-12-24T15:04:39.713Z,71.19
2018-12-24T15:07:08.016Z,71.45
2018-12-24T15:09:36.307Z,71.66
2018-12-24T15:12:04.630Z,71.68
2018-12-24T15:14:32.923Z,71.75
2018-12-24T15:17:01.227Z,71.66
2018-12-24T15:22:43.574Z,71.69
2018-12-24T15:25:11.871Z,71.75
2018-12-24T15:27:40.174Z,72.11
2018-12-24T15:30:08.463Z,72.23
2018-12-24T15:32:36.766Z,72.24
2018-12-24T15:35:05.055Z,72.55
2018-12-24T15:37:33.354Z,72.60
2018-12-24T15:40:01.638Z,72.93
2018-12-24T15:42:32.036Z,72.92
2018-12-24T15:44:59.975Z,73.09
2018-12-24T15:47:28.271Z,73.19
2018-12-24T15:49:56.556Z,73.23
2018-12-24T15:52:24.856Z,73.17
2018-12-24T15:54:53.142Z,73.47
2018-12-24T15:57:21.443Z,73.84
2018-12-24T15:59:49.727Z,74.38
2018-12-24T16:02:18.022Z,74.57
2018-12-24T16:04:46.308Z,74.46
2018-12-24T16:07:14.608Z,74.59
2018-12-24T16:09:42.893Z,74.86
2018-12-24T16:12:11.178Z,75.40
2018-12-24T16:14:39.480Z,75.30
2018-12-24T16:17:07.775Z,75.44
2018-12-24T16:19:36.095Z,75.39
2018-12-24T16:22:04.379Z,75.35
2018-12-24T16:24:32.677Z,75.46
2018-12-24T16:27:00.968Z,75.82
2018-12-24T16:29:29.263Z,76.10
2018-12-24T16:31:57.554Z,76.29
2018-12-24T16:34:25.849Z,76.42
2018-12-24T16:36:54.139Z,76.43
2018-12-24T16:39:22.454Z,77.16
2018-12-24T16:41:50.748Z,91.44
2018-12-24T16:44:19.059Z,90.07
2018-12-24T16:46:47.364Z,90.33
2018-12-24T16:49:15.681Z,90.79
2018-12-24T16:51:43.993Z,91.92
2018-12-24T16:54:12.306Z,90.27
2018-12-24T16:57:00.025Z,82.02
2018-12-24T16:59:28.350Z,71.39
2018-12-24T17:01:56.666Z,65.96
2018-12-24T17:04:24.975Z,66.71
2018-12-24T17:06:53.274Z,67.23
2018-12-24T17:09:21.594Z,67.49
2018-12-24T17:11:49.898Z,66.91
2018-12-24T17:14:18.197Z,67.99
2018-12-24T17:16:46.484Z,68.93
2018-12-24T17:19:14.802Z,69.24
2018-12-24T17:21:43.111Z,69.91
2018-12-24T17:24:11.414Z,70.30
2018-12-24T17:26:39.699Z,70.91
2018-12-24T17:29:07.999Z,71.40
2018-12-24T17:31:36.290Z,71.98
2018-12-24T17:34:04.605Z,72.60
2018-12-24T17:36:32.915Z,72.82
2018-12-24T17:39:01.197Z,73.60
2018-12-24T17:41:29.493Z,73.61
2018-12-24T17:43:57.786Z,73.74
2018-12-24T17:46:45.533Z,74.10
2018-12-24T17:49:13.842Z,74.56
2018-12-24T17:51:42.163Z,74.83
2018-12-24T17:54:10.441Z,74.87
2018-12-24T17:56:38.736Z,75.07
2018-12-24T17:59:07.044Z,75.03
2018-12-24T18:01:35.362Z,75.15
2018-12-24T18:04:03.651Z,75.50
2018-12-24T18:06:31.950Z,75.89
2018-12-24T18:09:00.233Z,76.15
2018-12-24T18:11:28.538Z,76.17
2018-12-24T18:13:56.827Z,76.29
2018-12-24T18:16:25.128Z,76.31
2018-12-24T18:18:53.435Z,80.83
2018-12-24T18:21:21.733Z,81.62
2018-12-24T18:23:50.028Z,79.81
2018-12-24T18:26:18.324Z,89.42
2018-12-24T18:28:46.641Z,91.80
2018-12-24T18:31:19.964Z,91.61
2018-12-24T18:33:45.025Z,92.34
2018-12-24T18:36:13.343Z,93.14
2018-12-24T18:38:41.668Z,94.45
2018-12-24T18:41:09.956Z,93.77
2018-12-24T18:43:38.269Z,92.17
2018-12-24T18:46:06.593Z,94.15
2018-12-24T18:48:34.955Z,90.05
2018-12-24T18:51:03.254Z,85.27
2018-12-24T18:53:31.566Z,84.10
2018-12-24T18:55:59.873Z,78.61
2018-12-24T18:58:28.180Z,75.89
2018-12-24T19:00:56.484Z,75.33
2018-12-24T19:03:24.791Z,73.54
2018-12-24T19:05:53.109Z,73.26
2018-12-24T19:08:21.417Z,71.66
2018-12-24T19:10:49.734Z,70.43
2018-12-24T19:13:18.059Z,68.94
2018-12-24T19:15:46.365Z,65.95
2018-12-24T19:18:14.687Z,66.61
2018-12-24T19:20:43.018Z,67.56
2018-12-24T19:23:11.341Z,68.55
2018-12-24T19:25:39.650Z,70.39
2018-12-24T19:28:07.991Z,68.19
2018-12-24T19:30:36.321Z,66.27
2018-12-24T19:33:04.645Z,65.04
2018-12-24T19:35:32.955Z,64.47
2018-12-24T19:38:01.283Z,62.57
2018-12-24T19:40:29.594Z,62.95
2018-12-24T19:42:57.899Z,63.28
2018-12-24T19:45:26.239Z,59.35
2018-12-24T19:47:54.532Z,60.66
2018-12-24T19:50:22.853Z,59.94
2018-12-24T19:52:51.254Z,59.33
2018-12-24T19:55:19.564Z,58.95
2018-12-24T19:57:47.856Z,58.75
2018-12-24T20:00:16.165Z,58.16
2018-12-24T20:02:44.464Z,57.54
2018-12-24T20:05:12.786Z,57.10
2018-12-24T20:07:41.105Z,57.12
2018-12-24T20:10:09.422Z,56.04
2018-12-24T20:12:37.750Z,55.58
2018-12-24T20:15:46.196Z,56.07
2018-12-24T20:18:14.515Z,55.91
2018-12-24T20:20:42.826Z,54.54
2018-12-24T20:23:11.154Z,54.38
2018-12-24T20:25:39.460Z,54.75
2018-12-24T20:28:07.754Z,54.01
2018-12-24T20:30:36.058Z,52.87
2018-12-24T20:33:04.352Z,49.94
2018-12-24T20:35:32.679Z,50.12
2018-12-24T20:38:00.975Z,50.89
2018-12-24T20:40:29.281Z,52.04
2018-12-24T20:42:57.593Z,53.11
2018-12-24T20:45:25.885Z,54.35
2018-12-24T20:47:54.187Z,55.25
2018-12-24T20:50:22.480Z,56.61
2018-12-24T20:52:50.777Z,57.86
2018-12-24T20:55:19.059Z,58.44
2018-12-24T20:57:47.366Z,59.57
2018-12-24T21:00:15.657Z,60.38
2018-12-24T21:02:43.986Z,61.54
2018-12-24T21:05:12.249Z,61.89
2018-12-24T21:07:40.540Z,62.89
2018-12-24T21:10:08.847Z,64.71
2018-12-24T21:12:37.147Z,65.29
2018-12-24T21:18:19.786Z,66.52
2018-12-24T21:20:48.078Z,66.63
2018-12-24T21:23:16.376Z,67.67
2018-12-24T21:25:44.669Z,67.63
2018-12-24T21:28:12.971Z,69.14
2018-12-24T21:30:41.414Z,68.55
2018-12-24T21:33:09.715Z,68.84
2018-12-24T21:35:37.995Z,69.60
2018-12-24T21:38:06.298Z,70.01
2018-12-24T21:40:34.590Z,70.41
2018-12-24T21:43:02.935Z,70.86
2018-12-24T21:45:31.249Z,71.13
2018-12-24T21:47:59.569Z,71.73
2018-12-24T21:50:27.857Z,71.75
2018-12-24T21:52:56.156Z,73.13
2018-12-24T21:55:24.444Z,73.66
2018-12-24T21:57:52.813Z,74.21
2018-12-24T22:00:21.096Z,73.85
2018-12-24T22:02:49.404Z,73.72
2018-12-24T22:05:17.727Z,74.30
2018-12-24T22:07:46.018Z,74.72
2018-12-24T22:10:14.343Z,74.88
2018-12-24T22:12:42.630Z,75.75
2018-12-24T22:15:11.039Z,75.32
2018-12-24T22:17:39.295Z,75.32
2018-12-24T22:20:07.592Z,75.79
2018-12-24T22:22:35.881Z,75.93
2018-12-24T22:25:04.198Z,75.95
2018-12-24T22:27:32.482Z,75.97
2018-12-24T22:30:00.784Z,75.81
2018-12-24T22:32:29.087Z,75.77
2018-12-24T22:34:57.386Z,75.59
2018-12-24T22:37:25.672Z,75.95
2018-12-24T22:39:53.964Z,76.30
2018-12-24T22:42:41.688Z,76.38
2018-12-24T22:45:09.987Z,76.42
2018-12-24T22:47:38.276Z,76.34
2018-12-24T22:50:06.581Z,76.93
2018-12-24T22:52:34.866Z,77.07
2018-12-24T22:55:03.164Z,77.18
2018-12-24T22:57:31.448Z,77.16
2018-12-24T22:59:59.766Z,77.43
2018-12-24T23:02:28.058Z,77.45
2018-12-24T23:04:56.369Z,77.39
2018-12-24T23:07:24.660Z,77.48
2018-12-24T23:09:52.971Z,77.54
2018-12-24T23:12:21.266Z,77.77
2018-12-24T23:14:49.548Z,77.90
2018-12-24T23:17:17.846Z,78.27
2018-12-24T23:19:46.130Z,78.30
2018-12-24T23:22:14.451Z,78.22
2018-12-24T23:24:42.760Z,78.05
2018-12-24T23:27:11.080Z,78.10
2018-12-24T23:29:39.364Z,78.17
2018-12-24T23:32:07.672Z,78.16
2018-12-24T23:34:35.961Z,78.01
2018-12-24T23:37:04.254Z,77.96
2018-12-24T23:39:32.539Z,77.91
2018-12-24T23:42:00.862Z,77.85
2018-12-24T23:44:29.145Z,77.87
2018-12-24T23:46:57.466Z,77.88
2018-12-24T23:49:25.756Z,77.83
2018-12-24T23:51:54.056Z,77.74
2018-12-24T23:54:22.338Z,77.74
2018-12-24T23:56:50.702Z,77.78
2018-12-24T23:59:18.983Z,77.58
